Main page
METAR-TAF:

METAR-TAF

Airports :

Dr. Babasaheb Ambedkar International Airport

Nagpur, India

latitude: 21-06N, longitude: 079-03E, elevation: 308 m

Current weather observation

The report was made 21 minutes ago, at 20:00 UTC
Wind 3 kt from the North/Northwest
Temperature 16°C
Humidity 88%
Pressure 1014 hPa
Visibility: 2000 m
haze

METAR: VANP 012000Z 33003KT 2000 HZ NSC 16/14 Q1014 NOSIG

Time: 01:51 (20:21 UTC)

Forecast

The report was made 3 hours and 21 minutes ago, at 17:00 UTC
Forecast valid from 01 at 18 UTC to 02 at 03 UTC
Wind 2 kt from the North/Northwest
Visibility: 2500 m
haze
Becoming
from 02 at 00 UTC to 02 at 02 UTC
Wind 2 kt from the North/Northeast
Visibility: 2000 m
mist

TAF: VANP 011700Z 0118/0203 34002KT 2500 HZ NSC BECMG 0200/0202 02002KT 2000 BR NSC

Weather observations and forecasts of more than 4000 airports (METAR and TAF reports).

The available stations are represented by yellow and red dots on the map.

Hover mouse over dot to see the name of the station.

Then click to see weather observations and forecasts.

To change the map : click on the green buttons with a black cross to zoom in, on the green button with a dash to zoom out, or on the green arrows for adjacent maps.


METAR-TAF: